sensor_id;sensor_type;location;lat;lon;timestamp;pressure;altitude;pressure_sealevel;temperature
72278;BMP280;61204;49.980;8.358;2022-12-11T00:00:45;100105.72;;;-2.74
72278;BMP280;61204;49.980;8.358;2022-12-11T00:03:11;100109.38;;;-2.77
72278;BMP280;61204;49.980;8.358;2022-12-11T00:05:40;100107.94;;;-2.78
72278;BMP280;61204;49.980;8.358;2022-12-11T00:08:06;100112.81;;;-2.76
72278;BMP280;61204;49.980;8.358;2022-12-11T00:10:32;100108.66;;;-2.77
72278;BMP280;61204;49.980;8.358;2022-12-11T00:12:58;100108.91;;;-2.75
72278;BMP280;61204;49.980;8.358;2022-12-11T00:15:24;100115.47;;;-2.71
72278;BMP280;61204;49.980;8.358;2022-12-11T00:17:49;100110.59;;;-2.67
72278;BMP280;61204;49.980;8.358;2022-12-11T00:20:15;100111.56;;;-2.58
72278;BMP280;61204;49.980;8.358;2022-12-11T00:22:41;100111.81;;;-2.56
72278;BMP280;61204;49.980;8.358;2022-12-11T00:25:07;100103.53;;;-2.58
72278;BMP280;61204;49.980;8.358;2022-12-11T00:27:33;100103.53;;;-2.58
72278;BMP280;61204;49.980;8.358;2022-12-11T00:29:59;100103.06;;;-2.57
72278;BMP280;61204;49.980;8.358;2022-12-11T00:32:24;100108.91;;;-2.58
72278;BMP280;61204;49.980;8.358;2022-12-11T00:34:50;100110.13;;;-2.59
72278;BMP280;61204;49.980;8.358;2022-12-11T00:37:16;100111.81;;;-2.62
72278;BMP280;61204;49.980;8.358;2022-12-11T00:39:42;100120.09;;;-2.66
72278;BMP280;61204;49.980;8.358;2022-12-11T00:42:07;100115.22;;;-2.67
72278;BMP280;61204;49.980;8.358;2022-12-11T00:44:34;100122.31;;;-2.70
72278;BMP280;61204;49.980;8.358;2022-12-11T00:47:01;100125.50;;;-2.71
72278;BMP280;61204;49.980;8.358;2022-12-11T00:49:28;100114.03;;;-2.72
72278;BMP280;61204;49.980;8.358;2022-12-11T00:51:53;100121.56;;;-2.70
72278;BMP280;61204;49.980;8.358;2022-12-11T00:54:19;100114.00;;;-2.66
72278;BMP280;61204;49.980;8.358;2022-12-11T00:56:45;100119.38;;;-2.66
72278;BMP280;61204;49.980;8.358;2022-12-11T00:59:11;100117.69;;;-2.63
72278;BMP280;61204;49.980;8.358;2022-12-11T01:01:37;100115.25;;;-2.61
72278;BMP280;61204;49.980;8.358;2022-12-11T01:04:03;100120.63;;;-2.61
72278;BMP280;61204;49.980;8.358;2022-12-11T01:06:29;100123.06;;;-2.63
72278;BMP280;61204;49.980;8.358;2022-12-11T01:08:55;100116.00;;;-2.61
72278;BMP280;61204;49.980;8.358;2022-12-11T01:11:41;100116.72;;;-2.60
72278;BMP280;61204;49.980;8.358;2022-12-11T01:14:09;100119.41;;;-2.60
72278;BMP280;61204;49.980;8.358;2022-12-11T01:16:36;100110.84;;;-2.59
72278;BMP280;61204;49.980;8.358;2022-12-11T01:19:02;100113.78;;;-2.57
72278;BMP280;61204;49.980;8.358;2022-12-11T01:21:28;100131.34;;;-2.56
72278;BMP280;61204;49.980;8.358;2022-12-11T01:23:53;100121.09;;;-2.52
72278;BMP280;61204;49.980;8.358;2022-12-11T01:26:19;100122.53;;;-2.51
72278;BMP280;61204;49.980;8.358;2022-12-11T01:28:48;100116.19;;;-2.48
72278;BMP280;61204;49.980;8.358;2022-12-11T01:31:17;100113.75;;;-2.46
72278;BMP280;61204;49.980;8.358;2022-12-11T01:33:44;100108.63;;;-2.44
72278;BMP280;61204;49.980;8.358;2022-12-11T01:36:12;100106.91;;;-2.41
72278;BMP280;61204;49.980;8.358;2022-12-11T01:38:44;100112.03;;;-2.43
72278;BMP280;61204;49.980;8.358;2022-12-11T01:41:12;100112.28;;;-2.41
72278;BMP280;61204;49.980;8.358;2022-12-11T01:44:04;100117.13;;;-2.39
72278;BMP280;61204;49.980;8.358;2022-12-11T01:46:52;100114.22;;;-2.36
72278;BMP280;61204;49.980;8.358;2022-12-11T01:49:20;100112.50;;;-2.33
72278;BMP280;61204;49.980;8.358;2022-12-11T01:52:18;100113.00;;;-2.29
72278;BMP280;61204;49.980;8.358;2022-12-11T01:54:47;100108.09;;;-2.25
72278;BMP280;61204;49.980;8.358;2022-12-11T01:57:15;100110.78;;;-2.25
72278;BMP280;61204;49.980;8.358;2022-12-11T01:59:43;100104.41;;;-2.17
72278;BMP280;61204;49.980;8.358;2022-12-11T02:02:23;100099.53;;;-2.18
72278;BMP280;61204;49.980;8.358;2022-12-11T02:04:54;100100.50;;;-2.15
72278;BMP280;61204;49.980;8.358;2022-12-11T02:07:20;100108.56;;;-2.15
72278;BMP280;61204;49.980;8.358;2022-12-11T02:09:47;100111.97;;;-2.15
72278;BMP280;61204;49.980;8.358;2022-12-11T02:15:40;100121.50;;;-2.14
72278;BMP280;61204;49.980;8.358;2022-12-11T02:18:30;100120.00;;;-2.09
72278;BMP280;61204;49.980;8.358;2022-12-11T02:21:19;100109.72;;;-2.05
72278;BMP280;61204;49.980;8.358;2022-12-11T02:24:21;100117.53;;;-2.02
72278;BMP280;61204;49.980;8.358;2022-12-11T02:26:58;100131.19;;;-2.00
72278;BMP280;61204;49.980;8.358;2022-12-11T02:30:11;100126.78;;;-1.97
72278;BMP280;61204;49.980;8.358;2022-12-11T02:32:46;100140.22;;;-1.97
72278;BMP280;61204;49.980;8.358;2022-12-11T02:35:26;100136.06;;;-1.98
72278;BMP280;61204;49.980;8.358;2022-12-11T02:38:07;100140.00;;;-1.99
72278;BMP280;61204;49.980;8.358;2022-12-11T02:40:42;100130.97;;;-2.02
72278;BMP280;61204;49.980;8.358;2022-12-11T02:43:15;100128.31;;;-2.07
72278;BMP280;61204;49.980;8.358;2022-12-11T02:45:45;100126.84;;;-2.08
72278;BMP280;61204;49.980;8.358;2022-12-11T02:48:13;100118.78;;;-2.08
72278;BMP280;61204;49.980;8.358;2022-12-11T02:50:45;100120.72;;;-2.09
72278;BMP280;61204;49.980;8.358;2022-12-11T02:53:17;100116.59;;;-2.10
72278;BMP280;61204;49.980;8.358;2022-12-11T02:55:51;100120.97;;;-2.12
72278;BMP280;61204;49.980;8.358;2022-12-11T02:58:31;100119.78;;;-2.17
72278;BMP280;61204;49.980;8.358;2022-12-11T03:01:01;100113.47;;;-2.20
72278;BMP280;61204;49.980;8.358;2022-12-11T03:03:28;100125.41;;;-2.21
72278;BMP280;61204;49.980;8.358;2022-12-11T03:05:55;100116.63;;;-2.21
72278;BMP280;61204;49.980;8.358;2022-12-11T03:08:21;100117.34;;;-2.21
72278;BMP280;61204;49.980;8.358;2022-12-11T03:10:46;100119.31;;;-2.21
72278;BMP280;61204;49.980;8.358;2022-12-11T03:13:14;100112.22;;;-2.19
72278;BMP280;61204;49.980;8.358;2022-12-11T03:15:56;100120.03;;;-2.15
72278;BMP280;61204;49.980;8.358;2022-12-11T03:18:50;100119.06;;;-2.18
72278;BMP280;61204;49.980;8.358;2022-12-11T03:21:37;100123.19;;;-2.17
72278;BMP280;61204;49.980;8.358;2022-12-11T03:24:19;100122.72;;;-2.15
72278;BMP280;61204;49.980;8.358;2022-12-11T03:26:58;100122.72;;;-2.15
72278;BMP280;61204;49.980;8.358;2022-12-11T03:29:38;100120.25;;;-2.13
72278;BMP280;61204;49.980;8.358;2022-12-11T03:32:18;100117.09;;;-2.11
72278;BMP280;61204;49.980;8.358;2022-12-11T03:37:47;100119.00;;;-2.06
72278;BMP280;61204;49.980;8.358;2022-12-11T03:40:19;100122.91;;;-2.02
72278;BMP280;61204;49.980;8.358;2022-12-11T03:42:50;100118.50;;;-1.99
72278;BMP280;61204;49.980;8.358;2022-12-11T03:45:21;100124.09;;;-1.97
72278;BMP280;61204;49.980;8.358;2022-12-11T03:47:51;100128.25;;;-1.96
72278;BMP280;61204;49.980;8.358;2022-12-11T03:50:21;100122.38;;;-1.95
72278;BMP280;61204;49.980;8.358;2022-12-11T03:52:53;100128.72;;;-1.92
72278;BMP280;61204;49.980;8.358;2022-12-11T03:55:21;100125.78;;;-1.94
72278;BMP280;61204;49.980;8.358;2022-12-11T03:57:48;100120.69;;;-1.98
72278;BMP280;61204;49.980;8.358;2022-12-11T04:00:17;100122.91;;;-2.02
72278;BMP280;61204;49.980;8.358;2022-12-11T04:02:45;100122.16;;;-2.02
72278;BMP280;61204;49.980;8.358;2022-12-11T04:05:31;100123.41;;;-2.03
72278;BMP280;61204;49.980;8.358;2022-12-11T04:07:57;100121.69;;;-2.06
72278;BMP280;61204;49.980;8.358;2022-12-11T04:10:23;100122.69;;;-2.04
72278;BMP280;61204;49.980;8.358;2022-12-11T04:12:48;100119.47;;;-2.02
72278;BMP280;61204;49.980;8.358;2022-12-11T04:15:14;100118.25;;;-2.01
72278;BMP280;61204;49.980;8.358;2022-12-11T04:17:40;100117.78;;;-2.00
72278;BMP280;61204;49.980;8.358;2022-12-11T04:20:24;100114.56;;;-1.98
72278;BMP280;61204;49.980;8.358;2022-12-11T04:23:16;100113.34;;;-1.97
72278;BMP280;61204;49.980;8.358;2022-12-11T04:26:15;100115.09;;;-2.00
72278;BMP280;61204;49.980;8.358;2022-12-11T04:28:45;100112.16;;;-2.02
72278;BMP280;61204;49.980;8.358;2022-12-11T04:31:14;100112.41;;;-2.00
72278;BMP280;61204;49.980;8.358;2022-12-11T04:33:43;100113.13;;;-1.99
72278;BMP280;61204;49.980;8.358;2022-12-11T04:36:10;100107.50;;;-2.01
72278;BMP280;61204;49.980;8.358;2022-12-11T04:38:37;100113.13;;;-2.05
72278;BMP280;61204;49.980;8.358;2022-12-11T04:41:11;100111.69;;;-2.06
72278;BMP280;61204;49.980;8.358;2022-12-11T04:43:39;100097.53;;;-2.06
72278;BMP280;61204;49.980;8.358;2022-12-11T04:46:12;100101.91;;;-2.09
72278;BMP280;61204;49.980;8.358;2022-12-11T04:48:42;100101.19;;;-2.09
72278;BMP280;61204;49.980;8.358;2022-12-11T04:51:08;100102.94;;;-2.12
72278;BMP280;61204;49.980;8.358;2022-12-11T04:53:34;100106.56;;;-2.09
72278;BMP280;61204;49.980;8.358;2022-12-11T04:56:04;100101.19;;;-2.09
72278;BMP280;61204;49.980;8.358;2022-12-11T04:58:32;100105.81;;;-2.04
72278;BMP280;61204;49.980;8.358;2022-12-11T05:01:00;100100.91;;;-2.00
72278;BMP280;61204;49.980;8.358;2022-12-11T05:03:34;100101.38;;;-1.96
72278;BMP280;61204;49.980;8.358;2022-12-11T05:06:00;100104.28;;;-1.94
72278;BMP280;61204;49.980;8.358;2022-12-11T05:08:25;100108.94;;;-1.95
72278;BMP280;61204;49.980;8.358;2022-12-11T05:10:58;100106.53;;;-1.98
72278;BMP280;61204;49.980;8.358;2022-12-11T05:13:28;100107.97;;;-1.97
72278;BMP280;61204;49.980;8.358;2022-12-11T05:15:55;100101.41;;;-2.02
72278;BMP280;61204;49.980;8.358;2022-12-11T05:18:21;100104.06;;;-1.96
72278;BMP280;61204;49.980;8.358;2022-12-11T05:20:55;100106.28;;;-2.00
72278;BMP280;61204;49.980;8.358;2022-12-11T05:23:23;100096.75;;;-2.01
72278;BMP280;61204;49.980;8.358;2022-12-11T05:25:51;100096.53;;;-2.03
72278;BMP280;61204;49.980;8.358;2022-12-11T05:28:23;100085.78;;;-2.03
72278;BMP280;61204;49.980;8.358;2022-12-11T05:31:00;100087.97;;;-2.02
72278;BMP280;61204;49.980;8.358;2022-12-11T05:33:29;100087.75;;;-2.04
72278;BMP280;61204;49.980;8.358;2022-12-11T05:35:56;100087.97;;;-2.02
72278;BMP280;61204;49.980;8.358;2022-12-11T05:38:22;100087.50;;;-2.00
72278;BMP280;61204;49.980;8.358;2022-12-11T05:40:59;100086.47;;;-1.97
72278;BMP280;61204;49.980;8.358;2022-12-11T05:43:30;100084.53;;;-1.97
72278;BMP280;61204;49.980;8.358;2022-12-11T05:46:10;100080.38;;;-1.98
72278;BMP280;61204;49.980;8.358;2022-12-11T05:48:45;100075.78;;;-2.03
72278;BMP280;61204;49.980;8.358;2022-12-11T05:51:14;100066.75;;;-2.05
72278;BMP280;61204;49.980;8.358;2022-12-11T05:53:41;100073.34;;;-2.06
72278;BMP280;61204;49.980;8.358;2022-12-11T05:56:12;100074.06;;;-2.06
72278;BMP280;61204;49.980;8.358;2022-12-11T05:58:45;100074.31;;;-2.04
72278;BMP280;61204;49.980;8.358;2022-12-11T06:01:16;100075.03;;;-2.03
72278;BMP280;61204;49.980;8.358;2022-12-11T06:03:45;100074.81;;;-2.05
72278;BMP280;61204;49.980;8.358;2022-12-11T06:06:11;100072.84;;;-2.05
72278;BMP280;61204;49.980;8.358;2022-12-11T06:08:38;100072.34;;;-2.03
72278;BMP280;61204;49.980;8.358;2022-12-11T06:11:05;100076.50;;;-2.02
72278;BMP280;61204;49.980;8.358;2022-12-11T06:13:31;100079.44;;;-2.00
72278;BMP280;61204;49.980;8.358;2022-12-11T06:16:02;100067.19;;;-1.96
72278;BMP280;61204;49.980;8.358;2022-12-11T06:18:30;100077.69;;;-1.92
72278;BMP280;61204;49.980;8.358;2022-12-11T06:21:01;100076.44;;;-1.91
72278;BMP280;61204;49.980;8.358;2022-12-11T06:23:26;100069.84;;;-1.84
72278;BMP280;61204;49.980;8.358;2022-12-11T06:25:52;100073.50;;;-1.82
72278;BMP280;61204;49.980;8.358;2022-12-11T06:28:18;100080.53;;;-1.79
72278;BMP280;61204;49.980;8.358;2022-12-11T06:30:43;100081.50;;;-1.76
72278;BMP280;61204;49.980;8.358;2022-12-11T06:33:09;100078.84;;;-1.76
72278;BMP280;61204;49.980;8.358;2022-12-11T06:35:35;100081.50;;;-1.76
72278;BMP280;61204;49.980;8.358;2022-12-11T06:38:00;100069.78;;;-1.73
72278;BMP280;61204;49.980;8.358;2022-12-11T06:40:26;100070.78;;;-1.76
72278;BMP280;61204;49.980;8.358;2022-12-11T06:42:53;100065.38;;;-1.76
72278;BMP280;61204;49.980;8.358;2022-12-11T06:45:19;100057.56;;;-1.74
72278;BMP280;61204;49.980;8.358;2022-12-11T06:47:44;100062.25;;;-1.80
72278;BMP280;61204;49.980;8.358;2022-12-11T06:50:10;100064.22;;;-1.81
72278;BMP280;61204;49.980;8.358;2022-12-11T06:52:35;100065.16;;;-1.78
72278;BMP280;61204;49.980;8.358;2022-12-11T06:55:01;100059.28;;;-1.77
72278;BMP280;61204;49.980;8.358;2022-12-11T06:57:27;100058.78;;;-1.75
72278;BMP280;61204;49.980;8.358;2022-12-11T06:59:52;100063.22;;;-1.78
72278;BMP280;61204;49.980;8.358;2022-12-11T07:02:19;100060.28;;;-1.80
72278;BMP280;61204;49.980;8.358;2022-12-11T07:04:45;100061.00;;;-1.79
72278;BMP280;61204;49.980;8.358;2022-12-11T07:07:11;100070.31;;;-1.80
72278;BMP280;61204;49.980;8.358;2022-12-11T07:09:39;100065.91;;;-1.83
72278;BMP280;61204;49.980;8.358;2022-12-11T07:12:05;100069.78;;;-1.79
72278;BMP280;61204;49.980;8.358;2022-12-11T07:14:32;100082.75;;;-1.77
72278;BMP280;61204;49.980;8.358;2022-12-11T07:16:58;100077.63;;;-1.81
72278;BMP280;61204;49.980;8.358;2022-12-11T07:19:24;100075.44;;;-1.82
72278;BMP280;61204;49.980;8.358;2022-12-11T07:21:50;100071.53;;;-1.81
72278;BMP280;61204;49.980;8.358;2022-12-11T07:24:16;100072.28;;;-1.81
72278;BMP280;61204;49.980;8.358;2022-12-11T07:26:43;100081.31;;;-1.84
72278;BMP280;61204;49.980;8.358;2022-12-11T07:29:08;100080.78;;;-1.77
72278;BMP280;61204;49.980;8.358;2022-12-11T07:31:34;100080.75;;;-1.71
72278;BMP280;61204;49.980;8.358;2022-12-11T07:34:05;100082.69;;;-1.66
72278;BMP280;61204;49.980;8.358;2022-12-11T07:36:32;100071.22;;;-1.66
72278;BMP280;61204;49.980;8.358;2022-12-11T07:38:59;100078.50;;;-1.61
72278;BMP280;61204;49.980;8.358;2022-12-11T07:41:26;100085.31;;;-1.55
72278;BMP280;61204;49.980;8.358;2022-12-11T07:43:53;100085.50;;;-1.53
72278;BMP280;61204;49.980;8.358;2022-12-11T07:46:25;100090.22;;;-1.59
72278;BMP280;61204;49.980;8.358;2022-12-11T07:48:54;100086.78;;;-1.59
72278;BMP280;61204;49.980;8.358;2022-12-11T07:51:24;100099.22;;;-1.56
72278;BMP280;61204;49.980;8.358;2022-12-11T07:54:02;100089.47;;;-1.59
72278;BMP280;61204;49.980;8.358;2022-12-11T07:56:36;100090.69;;;-1.55
72278;BMP280;61204;49.980;8.358;2022-12-11T07:59:04;100091.63;;;-1.52
72278;BMP280;61204;49.980;8.358;2022-12-11T08:01:33;100084.97;;;-1.46
72278;BMP280;61204;49.980;8.358;2022-12-11T08:04:00;100087.47;;;-1.53
72278;BMP280;61204;49.980;8.358;2022-12-11T08:06:31;100100.72;;;-1.55
72278;BMP280;61204;49.980;8.358;2022-12-11T08:09:01;100091.88;;;-1.56
72278;BMP280;61204;49.980;8.358;2022-12-11T08:11:30;100097.00;;;-1.52
72278;BMP280;61204;49.980;8.358;2022-12-11T08:13:57;100090.16;;;-1.53
72278;BMP280;61204;49.980;8.358;2022-12-11T08:16:24;100090.16;;;-1.48
72278;BMP280;61204;49.980;8.358;2022-12-11T08:18:50;100092.78;;;-1.42
72278;BMP280;61204;49.980;8.358;2022-12-11T08:21:19;100103.00;;;-1.35
72278;BMP280;61204;49.980;8.358;2022-12-11T08:23:51;100103.25;;;-1.33
72278;BMP280;61204;49.980;8.358;2022-12-11T08:26:27;100100.47;;;-1.22
72278;BMP280;61204;49.980;8.358;2022-12-11T08:28:56;100100.47;;;-1.22
72278;BMP280;61204;49.980;8.358;2022-12-11T08:31:22;100106.31;;;-1.17
72278;BMP280;61204;49.980;8.358;2022-12-11T08:33:49;100116.56;;;-1.16
72278;BMP280;61204;49.980;8.358;2022-12-11T08:36:18;100113.66;;;-1.18
72278;BMP280;61204;49.980;8.358;2022-12-11T08:38:46;100117.84;;;-1.23
72278;BMP280;61204;49.980;8.358;2022-12-11T08:41:15;100115.41;;;-1.20
72278;BMP280;61204;49.980;8.358;2022-12-11T08:43:44;100111.22;;;-1.22
72278;BMP280;61204;49.980;8.358;2022-12-11T08:46:10;100110.94;;;-1.12
72278;BMP280;61204;49.980;8.358;2022-12-11T08:48:39;100109.19;;;-1.10
72278;BMP280;61204;49.980;8.358;2022-12-11T08:51:10;100104.31;;;-1.11
72278;BMP280;61204;49.980;8.358;2022-12-11T08:53:41;100112.16;;;-1.13
72278;BMP280;61204;49.980;8.358;2022-12-11T08:56:10;100106.22;;;-1.06
72278;BMP280;61204;49.980;8.358;2022-12-11T08:58:39;100105.38;;;-0.95
72278;BMP280;61204;49.980;8.358;2022-12-11T09:01:10;100097.09;;;-0.98
72278;BMP280;61204;49.980;8.358;2022-12-11T09:03:40;100099.53;;;-0.94
72278;BMP280;61204;49.980;8.358;2022-12-11T09:06:09;100088.41;;;-0.85
72278;BMP280;61204;49.980;8.358;2022-12-11T09:08:38;100089.09;;;-0.79
72278;BMP280;61204;49.980;8.358;2022-12-11T09:11:09;100091.09;;;-0.85
72278;BMP280;61204;49.980;8.358;2022-12-11T09:13:38;100085.69;;;-0.79
72278;BMP280;61204;49.980;8.358;2022-12-11T09:16:07;100089.13;;;-0.84
72278;BMP280;61204;49.980;8.358;2022-12-11T09:18:39;100084.94;;;-0.80
72278;BMP280;61204;49.980;8.358;2022-12-11T09:21:07;100087.78;;;-0.72
72278;BMP280;61204;49.980;8.358;2022-12-11T09:23:37;100084.44;;;-0.78
72278;BMP280;61204;49.980;8.358;2022-12-11T09:26:05;100079.72;;;-0.72
72278;BMP280;61204;49.980;8.358;2022-12-11T09:28:35;100090.03;;;-0.52
72278;BMP280;61204;49.980;8.358;2022-12-11T09:31:09;100088.63;;;-0.58
72278;BMP280;61204;49.980;8.358;2022-12-11T09:33:39;100087.47;;;-0.63
72278;BMP280;61204;49.980;8.358;2022-12-11T09:36:05;100092.44;;;-0.48
72278;BMP280;61204;49.980;8.358;2022-12-11T09:38:32;100099.09;;;-0.49
72278;BMP280;61204;49.980;8.358;2022-12-11T09:41:00;100094.88;;;-0.44
72278;BMP280;61204;49.980;8.358;2022-12-11T09:43:44;100093.56;;;-0.38
72278;BMP280;61204;49.980;8.358;2022-12-11T09:46:26;100088.97;;;-0.43
72278;BMP280;61204;49.980;8.358;2022-12-11T09:48:53;100079.84;;;-0.59
72278;BMP280;61204;49.980;8.358;2022-12-11T09:54:12;100081.28;;;-0.33
72278;BMP280;61204;49.980;8.358;2022-12-11T09:57:00;100084.25;;;-0.37
72278;BMP280;61204;49.980;8.358;2022-12-11T10:14:39;100079.47;;;-0.25
72278;BMP280;61204;49.980;8.358;2022-12-11T10:17:54;100078.25;;;-0.24
72278;BMP280;61204;49.980;8.358;2022-12-11T10:20:27;100070.25;;;-0.30
72278;BMP280;61204;49.980;8.358;2022-12-11T10:23:05;100075.44;;;-0.37
72278;BMP280;61204;49.980;8.358;2022-12-11T10:25:39;100068.19;;;-0.23
72278;BMP280;61204;49.980;8.358;2022-12-11T10:28:14;100072.34;;;-0.47
72278;BMP280;61204;49.980;8.358;2022-12-11T10:34:02;100077.75;;;-0.47
72278;BMP280;61204;49.980;8.358;2022-12-11T10:36:43;100068.66;;;-0.44
72278;BMP280;61204;49.980;8.358;2022-12-11T10:39:14;100066.81;;;-0.55
72278;BMP280;61204;49.980;8.358;2022-12-11T10:41:47;100055.53;;;-0.53
72278;BMP280;61204;49.980;8.358;2022-12-11T10:44:20;100058.97;;;-0.53
72278;BMP280;61204;49.980;8.358;2022-12-11T10:47:13;100053.75;;;-0.45
72278;BMP280;61204;49.980;8.358;2022-12-11T10:49:52;100043.41;;;-0.41
72278;BMP280;61204;49.980;8.358;2022-12-11T10:52:25;100039.38;;;-0.53
72278;BMP280;61204;49.980;8.358;2022-12-11T10:54:59;100045.88;;;-0.43
72278;BMP280;61204;49.980;8.358;2022-12-11T10:57:35;100043.84;;;-0.37
72278;BMP280;61204;49.980;8.358;2022-12-11T11:00:05;100031.63;;;-0.38
72278;BMP280;61204;49.980;8.358;2022-12-11T11:02:50;100038.47;;;-0.37
72278;BMP280;61204;49.980;8.358;2022-12-11T11:05:30;100035.72;;;-0.31
72278;BMP280;61204;49.980;8.358;2022-12-11T11:08:09;100026.09;;;-0.27
72278;BMP280;61204;49.980;8.358;2022-12-11T11:10:54;100031.03;;;-0.12
72278;BMP280;61204;49.980;8.358;2022-12-11T11:13:24;100031.13;;;0.02
72278;BMP280;61204;49.980;8.358;2022-12-11T11:16:04;100016.78;;;-0.07
72278;BMP280;61204;49.980;8.358;2022-12-11T11:18:38;100024.94;;;-0.12
72278;BMP280;61204;49.980;8.358;2022-12-11T11:21:17;100019.97;;;-0.08
72278;BMP280;61204;49.980;8.358;2022-12-11T11:23:45;100021.44;;;-0.07
72278;BMP280;61204;49.980;8.358;2022-12-11T11:26:11;100024.63;;;0.10
72278;BMP280;61204;49.980;8.358;2022-12-11T11:28:46;100022.03;;;0.05
72278;BMP280;61204;49.980;8.358;2022-12-11T11:31:18;100014.13;;;0.07
72278;BMP280;61204;49.980;8.358;2022-12-11T11:33:56;100023.75;;;0.02
72278;BMP280;61204;49.980;8.358;2022-12-11T11:36:32;100017.50;;;-0.06
72278;BMP280;61204;49.980;8.358;2022-12-11T11:39:26;100006.13;;;0.01
72278;BMP280;61204;49.980;8.358;2022-12-11T11:42:21;100008.31;;;0.03
72278;BMP280;61204;49.980;8.358;2022-12-11T11:45:08;100007.59;;;0.02
72278;BMP280;61204;49.980;8.358;2022-12-11T11:53:54;99994.53;;;0.06
72278;BMP280;61204;49.980;8.358;2022-12-11T11:56:30;99993.94;;;0.13
72278;BMP280;61204;49.980;8.358;2022-12-11T12:01:58;99996.94;;;0.10
72278;BMP280;61204;49.980;8.358;2022-12-11T12:04:31;99995.00;;;-0.09
72278;BMP280;61204;49.980;8.358;2022-12-11T12:07:10;99997.41;;;-0.05
72278;BMP280;61204;49.980;8.358;2022-12-11T12:10:25;99992.00;;;-0.05
72278;BMP280;61204;49.980;8.358;2022-12-11T12:16:21;99994.03;;;0.08
72278;BMP280;61204;49.980;8.358;2022-12-11T12:22:44;99996.50;;;0.06
72278;BMP280;61204;49.980;8.358;2022-12-11T12:25:56;99992.53;;;-0.07
72278;BMP280;61204;49.980;8.358;2022-12-11T12:32:04;99987.31;;;-0.18
72278;BMP280;61204;49.980;8.358;2022-12-11T12:34:49;99987.34;;;-0.05
72278;BMP280;61204;49.980;8.358;2022-12-11T12:38:01;99983.03;;;0.06
72278;BMP280;61204;49.980;8.358;2022-12-11T12:44:17;99978.03;;;-0.04
72278;BMP280;61204;49.980;8.358;2022-12-11T12:47:04;99979.25;;;-0.05
72278;BMP280;61204;49.980;8.358;2022-12-11T12:52:32;99979.25;;;-0.05
72278;BMP280;61204;49.980;8.358;2022-12-11T12:55:19;99981.72;;;0.12
72278;BMP280;61204;49.980;8.358;2022-12-11T12:57:55;99984.53;;;0.20
72278;BMP280;61204;49.980;8.358;2022-12-11T13:00:40;99990.84;;;0.22
72278;BMP280;61204;49.980;8.358;2022-12-11T13:03:21;99979.63;;;0.05
72278;BMP280;61204;49.980;8.358;2022-12-11T13:05:57;99991.25;;;0.13
72278;BMP280;61204;49.980;8.358;2022-12-11T13:08:39;99977.78;;;0.13
72278;BMP280;61204;49.980;8.358;2022-12-11T13:11:11;99982.03;;;0.09
72278;BMP280;61204;49.980;8.358;2022-12-11T13:13:47;99970.88;;;-0.01
72278;BMP280;61204;49.980;8.358;2022-12-11T13:16:37;99976.13;;;-0.09
72278;BMP280;61204;49.980;8.358;2022-12-11T13:25:16;99982.81;;;0.04
72278;BMP280;61204;49.980;8.358;2022-12-11T13:27:50;99986.38;;;0.12
72278;BMP280;61204;49.980;8.358;2022-12-11T13:33:20;99979.91;;;0.02
72278;BMP280;61204;49.980;8.358;2022-12-11T13:35:47;99984.41;;;0.12
72278;BMP280;61204;49.980;8.358;2022-12-11T13:38:18;99988.66;;;0.08
72278;BMP280;61204;49.980;8.358;2022-12-11T13:40:52;99982.50;;;0.07
72278;BMP280;61204;49.980;8.358;2022-12-11T13:43:26;99987.19;;;0.07
72278;BMP280;61204;49.980;8.358;2022-12-11T13:45:59;99983.03;;;0.06
72278;BMP280;61204;49.980;8.358;2022-12-11T13:48:35;99991.22;;;0.00
72278;BMP280;61204;49.980;8.358;2022-12-11T13:51:15;99986.75;;;0.03
72278;BMP280;61204;49.980;8.358;2022-12-11T13:53:44;99985.31;;;0.02
72278;BMP280;61204;49.980;8.358;2022-12-11T13:56:19;99989.69;;;0.05
72278;BMP280;61204;49.980;8.358;2022-12-11T13:58:47;99987.06;;;-0.01
72278;BMP280;61204;49.980;8.358;2022-12-11T14:01:18;99981.88;;;0.01
72278;BMP280;61204;49.980;8.358;2022-12-11T14:03:59;99985.38;;;-0.04
72278;BMP280;61204;49.980;8.358;2022-12-11T14:06:32;99978.34;;;-0.07
72278;BMP280;61204;49.980;8.358;2022-12-11T14:09:02;99985.16;;;-0.06
72278;BMP280;61204;49.980;8.358;2022-12-11T14:11:40;99996.16;;;-0.04
72278;BMP280;61204;49.980;8.358;2022-12-11T14:14:17;99999.59;;;-0.04
72278;BMP280;61204;49.980;8.358;2022-12-11T14:16:53;99998.06;;;0.01
72278;BMP280;61204;49.980;8.358;2022-12-11T14:19:21;99996.09;;;0.02
72278;BMP280;61204;49.980;8.358;2022-12-11T14:22:03;100002.19;;;0.02
72278;BMP280;61204;49.980;8.358;2022-12-11T14:24:31;100006.13;;;0.01
72278;BMP280;61204;49.980;8.358;2022-12-11T14:26:57;99992.00;;;-0.05
72278;BMP280;61204;49.980;8.358;2022-12-11T14:29:25;100002.50;;;-0.02
72278;BMP280;61204;49.980;8.358;2022-12-11T14:31:57;99998.84;;;-0.04
72278;BMP280;61204;49.980;8.358;2022-12-11T14:37:07;100010.88;;;-0.05
72278;BMP280;61204;49.980;8.358;2022-12-11T14:42:36;100009.91;;;-0.08
72278;BMP280;61204;49.980;8.358;2022-12-11T14:45:29;100016.06;;;-0.07
72278;BMP280;61204;49.980;8.358;2022-12-11T14:48:04;100006.88;;;0.02
72278;BMP280;61204;49.980;8.358;2022-12-11T14:50:43;100020.41;;;-0.04
72278;BMP280;61204;49.980;8.358;2022-12-11T14:53:17;100017.28;;;-0.08
72278;BMP280;61204;49.980;8.358;2022-12-11T14:55:48;100019.25;;;-0.09
72278;BMP280;61204;49.980;8.358;2022-12-11T14:58:24;100022.66;;;-0.08
72278;BMP280;61204;49.980;8.358;2022-12-11T15:01:05;100012.47;;;-0.15
72278;BMP280;61204;49.980;8.358;2022-12-11T15:03:47;100015.25;;;-0.21
72278;BMP280;61204;49.980;8.358;2022-12-11T15:06:28;100015.50;;;-0.19
72278;BMP280;61204;49.980;8.358;2022-12-11T15:12:07;100025.09;;;-0.23
72278;BMP280;61204;49.980;8.358;2022-12-11T15:14:51;100020.72;;;-0.27
72278;BMP280;61204;49.980;8.358;2022-12-11T15:17:23;100023.19;;;-0.29
72278;BMP280;61204;49.980;8.358;2022-12-11T15:19:54;100022.25;;;-0.31
72278;BMP280;61204;49.980;8.358;2022-12-11T15:22:28;100022.50;;;-0.35
72278;BMP280;61204;49.980;8.358;2022-12-11T15:24:56;100015.66;;;-0.36
72278;BMP280;61204;49.980;8.358;2022-12-11T15:27:35;100024.47;;;-0.35
72278;BMP280;61204;49.980;8.358;2022-12-11T15:32:44;100022.28;;;-0.37
72278;BMP280;61204;49.980;8.358;2022-12-11T15:35:24;100023.31;;;-0.40
72278;BMP280;61204;49.980;8.358;2022-12-11T15:37:56;100026.53;;;-0.41
72278;BMP280;61204;49.980;8.358;2022-12-11T15:40:23;100022.88;;;-0.44
72278;BMP280;61204;49.980;8.358;2022-12-11T15:42:51;100017.25;;;-0.46